createdAt,value
2022-11-13T00:01:26.324Z,10.38
2022-11-13T00:04:12.740Z,11.23
2022-11-13T00:06:59.515Z,9.68
2022-11-13T00:09:45.130Z,8.85
2022-11-13T00:12:30.594Z,9.57
2022-11-13T00:15:16.632Z,9.27
2022-11-13T00:18:03.258Z,11.27
2022-11-13T00:20:48.722Z,10.18
2022-11-13T00:23:37.620Z,13.43
2022-11-13T00:26:29.316Z,13.15
2022-11-13T00:29:15.141Z,12.57
2022-11-13T00:32:00.674Z,10.35
2022-11-13T00:34:48.428Z,12.02
2022-11-13T00:37:34.001Z,11.95
2022-11-13T00:40:19.678Z,12.05
2022-11-13T00:43:05.064Z,10.07
2022-11-13T00:45:51.043Z,10.75
2022-11-13T00:48:36.769Z,9.90
2022-11-13T00:51:22.245Z,9.10
2022-11-13T00:54:08.066Z,12.30
2022-11-13T00:56:53.502Z,11.95
2022-11-13T00:59:38.955Z,11.77
2022-11-13T01:02:24.508Z,10.30
2022-11-13T01:05:10.237Z,9.82
2022-11-13T01:07:55.659Z,9.55
2022-11-13T01:10:52.984Z,9.35
2022-11-13T01:13:45.137Z,10.50
2022-11-13T01:16:30.823Z,13.07
2022-11-13T01:19:16.391Z,9.00
2022-11-13T01:22:01.652Z,13.38
2022-11-13T01:24:47.124Z,10.30
2022-11-13T01:27:32.684Z,10.93
2022-11-13T01:30:18.543Z,10.63
2022-11-13T01:33:04.209Z,9.13
2022-11-13T01:35:49.960Z,12.15
2022-11-13T01:38:37.002Z,8.52
2022-11-13T01:41:28.912Z,9.02
2022-11-13T01:44:16.345Z,8.73
2022-11-13T01:47:03.518Z,11.48
2022-11-13T01:49:53.075Z,9.27
2022-11-13T01:52:42.394Z,7.50
2022-11-13T01:55:28.322Z,7.75
2022-11-13T01:58:14.996Z,6.50
2022-11-13T02:01:00.549Z,7.82
2022-11-13T02:03:46.260Z,7.85
2022-11-13T02:06:39.947Z,7.03
2022-11-13T02:09:29.118Z,7.63
2022-11-13T02:12:17.125Z,8.65
2022-11-13T02:15:06.496Z,8.77
2022-11-13T02:17:58.383Z,7.93
2022-11-13T02:20:53.297Z,8.68
2022-11-13T02:26:31.606Z,10.25
2022-11-13T02:29:16.860Z,9.63
2022-11-13T02:32:03.013Z,10.07
2022-11-13T02:34:48.706Z,11.45
2022-11-13T02:37:34.295Z,15.25
2022-11-13T02:40:19.990Z,17.65
2022-11-13T02:43:05.796Z,17.55
2022-11-13T02:45:51.117Z,21.45
2022-11-13T02:48:36.646Z,35.70
2022-11-13T02:51:22.480Z,33.47
2022-11-13T02:54:07.755Z,29.70
2022-11-13T02:56:53.131Z,27.42
2022-11-13T02:59:38.717Z,20.80
2022-11-13T03:02:24.303Z,17.35
2022-11-13T03:05:13.073Z,16.45
2022-11-13T03:07:59.682Z,26.67
2022-11-13T03:10:45.172Z,21.23
2022-11-13T03:13:30.599Z,23.98
2022-11-13T03:16:17.880Z,14.73
2022-11-13T03:19:04.163Z,11.40
2022-11-13T03:21:49.933Z,10.85
2022-11-13T03:24:35.406Z,9.93
2022-11-13T03:27:21.019Z,9.27
2022-11-13T03:30:07.417Z,10.05
2022-11-13T03:32:56.785Z,11.23
2022-11-13T03:35:46.787Z,12.73
2022-11-13T03:38:32.482Z,17.38
2022-11-13T03:41:18.091Z,14.18
2022-11-13T03:44:03.589Z,13.60
2022-11-13T03:46:48.977Z,14.07
2022-11-13T03:49:34.387Z,9.98
2022-11-13T03:52:20.029Z,9.63
2022-11-13T03:55:05.990Z,11.70
2022-11-13T03:57:51.469Z,11.98
2022-11-13T04:00:38.390Z,9.43
2022-11-13T04:03:23.775Z,11.10
2022-11-13T04:06:09.660Z,8.40
2022-11-13T04:08:54.922Z,7.88
2022-11-13T04:11:40.513Z,8.70
2022-11-13T04:14:26.022Z,8.65
2022-11-13T04:17:11.525Z,9.10
2022-11-13T04:19:57.128Z,7.45
2022-11-13T04:22:42.821Z,7.18
2022-11-13T04:25:28.446Z,8.98
2022-11-13T04:28:14.078Z,7.38
2022-11-13T04:30:59.655Z,7.65
2022-11-13T04:33:45.256Z,7.03
2022-11-13T04:36:30.930Z,6.65
2022-11-13T04:39:16.348Z,8.05
2022-11-13T04:42:20.148Z,9.65
2022-11-13T04:45:06.263Z,11.13
2022-11-13T04:47:52.122Z,8.07
2022-11-13T04:50:37.604Z,7.80
2022-11-13T04:53:23.130Z,9.07
2022-11-13T04:56:08.562Z,8.50
2022-11-13T04:58:54.107Z,13.90
2022-11-13T05:01:39.598Z,12.30
2022-11-13T05:04:25.094Z,11.38
2022-11-13T05:07:10.548Z,11.80
2022-11-13T05:09:56.034Z,13.25
2022-11-13T05:12:41.548Z,12.40
2022-11-13T05:15:27.274Z,9.93
2022-11-13T05:18:12.996Z,9.32
2022-11-13T05:20:58.641Z,11.48
2022-11-13T05:23:44.196Z,11.75
2022-11-13T05:26:29.982Z,13.20
2022-11-13T05:29:16.222Z,10.35
2022-11-13T05:32:01.881Z,11.40
2022-11-13T05:34:47.497Z,12.73
2022-11-13T05:37:32.715Z,10.88
2022-11-13T05:40:18.373Z,16.85
2022-11-13T05:43:03.793Z,17.40
2022-11-13T05:45:49.627Z,16.67
2022-11-13T05:48:36.150Z,15.68
2022-11-13T05:51:24.880Z,13.45
2022-11-13T05:54:11.020Z,14.25
2022-11-13T05:56:56.532Z,16.52
2022-11-13T05:59:41.900Z,11.35
2022-11-13T06:02:27.572Z,9.18
2022-11-13T06:05:13.153Z,10.20
2022-11-13T06:07:58.687Z,13.32
2022-11-13T06:10:44.242Z,11.07
2022-11-13T06:13:30.112Z,11.30
2022-11-13T06:16:20.427Z,11.63
2022-11-13T06:19:09.863Z,11.23
2022-11-13T06:21:55.250Z,13.88
2022-11-13T06:24:40.839Z,11.32
2022-11-13T06:27:27.371Z,14.55
2022-11-13T06:30:13.434Z,11.80
2022-11-13T06:32:58.930Z,8.98
2022-11-13T06:35:44.631Z,10.75
2022-11-13T06:38:38.397Z,13.30
2022-11-13T06:41:26.459Z,8.45
2022-11-13T06:44:11.724Z,10.25
2022-11-13T06:46:57.365Z,10.02
2022-11-13T06:49:42.882Z,8.60
2022-11-13T06:52:28.494Z,8.65
2022-11-13T06:55:14.088Z,8.93
2022-11-13T06:57:59.532Z,10.45
2022-11-13T07:00:45.760Z,10.23
2022-11-13T07:03:31.166Z,10.63
2022-11-13T07:06:19.489Z,9.00
2022-11-13T07:09:05.179Z,8.93
2022-11-13T07:11:50.836Z,10.15
2022-11-13T07:14:36.521Z,15.60
2022-11-13T07:17:22.004Z,12.50
2022-11-13T07:20:08.234Z,13.38
2022-11-13T07:22:58.216Z,15.73
2022-11-13T07:25:43.615Z,14.07
2022-11-13T07:28:29.535Z,17.23
2022-11-13T07:31:16.697Z,16.50
2022-11-13T07:34:02.035Z,9.88
2022-11-13T07:36:47.539Z,12.60
2022-11-13T07:39:33.509Z,11.10
2022-11-13T07:42:18.874Z,11.55
2022-11-13T07:45:04.989Z,12.38
2022-11-13T07:47:50.418Z,10.95
2022-11-13T07:50:37.772Z,10.85
2022-11-13T07:53:23.480Z,12.27
2022-11-13T07:56:09.363Z,11.27
2022-11-13T07:58:55.049Z,14.73
2022-11-13T08:01:40.623Z,10.77
2022-11-13T08:04:26.163Z,16.08
2022-11-13T08:07:13.160Z,13.07
2022-11-13T08:10:01.267Z,15.60
2022-11-13T08:12:46.806Z,13.52
2022-11-13T08:15:32.958Z,14.10
2022-11-13T08:18:18.673Z,17.48
2022-11-13T08:21:08.117Z,21.50
2022-11-13T08:23:57.478Z,17.50
2022-11-13T08:26:43.997Z,20.65
2022-11-13T08:29:29.556Z,24.80
2022-11-13T08:32:16.767Z,24.90
2022-11-13T08:35:02.363Z,24.90
2022-11-13T08:37:47.943Z,21.65
2022-11-13T08:40:33.862Z,28.70
2022-11-13T08:43:19.638Z,30.88
2022-11-13T08:46:05.195Z,25.73
2022-11-13T08:48:50.421Z,24.45
2022-11-13T08:51:35.899Z,27.13
2022-11-13T08:54:21.372Z,31.92
2022-11-13T08:57:06.797Z,38.38
2022-11-13T08:59:52.243Z,38.00
2022-11-13T09:02:37.817Z,36.95
2022-11-13T09:05:24.106Z,43.58
2022-11-13T09:08:10.719Z,48.72
2022-11-13T09:10:55.854Z,45.72
2022-11-13T09:13:44.491Z,55.45
2022-11-13T09:16:31.888Z,57.17
2022-11-13T09:19:17.541Z,62.03
2022-11-13T09:22:02.678Z,49.15
2022-11-13T09:24:48.313Z,55.67
2022-11-13T09:27:33.700Z,56.90
2022-11-13T09:30:19.320Z,57.63
2022-11-13T09:33:06.485Z,59.60
2022-11-13T09:35:51.921Z,66.47
2022-11-13T09:38:38.027Z,68.40
2022-11-13T09:41:29.766Z,64.18
2022-11-13T09:44:20.798Z,64.57
2022-11-13T09:47:06.182Z,60.25
2022-11-13T09:49:56.120Z,57.50
2022-11-13T09:52:44.107Z,47.63
2022-11-13T09:55:36.718Z,58.22
2022-11-13T09:58:36.857Z,48.33
2022-11-13T10:01:45.690Z,50.17
2022-11-13T10:04:52.817Z,52.85
2022-11-13T10:07:51.087Z,52.38
2022-11-13T10:11:04.441Z,47.80
2022-11-13T10:14:02.214Z,45.85
2022-11-13T10:17:13.977Z,45.30
2022-11-13T10:20:02.490Z,46.53
2022-11-13T10:22:55.570Z,44.60
2022-11-13T10:25:42.837Z,41.75
2022-11-13T10:28:49.357Z,40.47
2022-11-13T10:32:29.861Z,37.05
2022-11-13T10:35:52.109Z,40.60
2022-11-13T10:38:48.087Z,39.85
2022-11-13T10:41:45.147Z,36.55
2022-11-13T10:44:36.674Z,35.00
2022-11-13T10:47:56.784Z,32.35
2022-11-13T10:50:31.606Z,38.13
2022-11-13T10:53:18.756Z,32.50
2022-11-13T10:56:32.852Z,30.77
2022-11-13T10:59:19.749Z,29.83
2022-11-13T11:02:19.040Z,28.48
2022-11-13T11:05:18.548Z,26.80
2022-11-13T11:08:09.169Z,27.85
2022-11-13T11:11:17.411Z,26.73
2022-11-13T11:14:25.511Z,26.15
2022-11-13T11:17:13.157Z,23.02
2022-11-13T11:20:20.457Z,22.35
2022-11-13T11:23:24.279Z,26.23
2022-11-13T11:26:28.387Z,22.33
2022-11-13T11:29:17.684Z,24.17
2022-11-13T11:32:12.540Z,23.00
2022-11-13T11:35:06.564Z,21.45
2022-11-13T11:37:59.380Z,23.40
2022-11-13T11:40:49.334Z,24.27
2022-11-13T11:43:51.588Z,28.13
2022-11-13T11:46:37.424Z,28.48
2022-11-13T11:49:26.242Z,27.25
2022-11-13T11:52:49.821Z,26.15
2022-11-13T11:55:57.775Z,23.55
2022-11-13T11:58:54.939Z,20.98
2022-11-13T12:02:03.052Z,18.45
2022-11-13T12:04:57.813Z,20.77
2022-11-13T12:08:09.128Z,15.07
2022-11-13T12:11:07.284Z,14.65
2022-11-13T12:14:05.341Z,14.45
2022-11-13T12:16:58.645Z,14.90
2022-11-13T12:20:02.759Z,13.88
2022-11-13T12:23:27.610Z,14.88
2022-11-13T12:26:46.353Z,13.32
2022-11-13T12:29:52.187Z,12.63
2022-11-13T12:32:55.017Z,12.32
2022-11-13T12:35:41.324Z,13.30
2022-11-13T12:38:32.824Z,12.90
2022-11-13T12:41:50.263Z,14.68
2022-11-13T12:44:53.339Z,11.82
2022-11-13T12:47:38.716Z,12.80
2022-11-13T12:50:35.535Z,12.38
2022-11-13T12:53:31.663Z,12.55
2022-11-13T12:56:27.595Z,11.85
2022-11-13T12:59:34.301Z,12.57
2022-11-13T13:02:22.430Z,11.98
2022-11-13T13:05:23.965Z,12.40
2022-11-13T13:08:28.115Z,12.40
2022-11-13T13:11:35.989Z,12.98
2022-11-13T13:14:52.243Z,14.05
2022-11-13T13:17:38.001Z,12.35
2022-11-13T13:20:23.166Z,13.30
2022-11-13T13:23:12.759Z,13.13
2022-11-13T13:26:23.231Z,12.13
2022-11-13T13:29:19.465Z,13.68
2022-11-13T13:32:21.500Z,12.95
2022-11-13T13:35:26.051Z,13.63
2022-11-13T13:38:15.271Z,19.02
2022-11-13T13:41:25.967Z,27.67
2022-11-13T13:44:33.979Z,23.67
2022-11-13T13:47:27.001Z,27.92
2022-11-13T13:50:17.237Z,20.83
2022-11-13T13:53:03.197Z,18.98
2022-11-13T13:55:59.157Z,17.63
2022-11-13T13:58:45.584Z,17.70
2022-11-13T14:01:33.416Z,23.08
2022-11-13T14:04:21.982Z,25.08
2022-11-13T14:07:27.122Z,24.60
2022-11-13T14:10:20.246Z,22.90
2022-11-13T14:13:06.096Z,26.38
2022-11-13T14:16:06.446Z,28.20
2022-11-13T14:19:02.546Z,23.65
2022-11-13T14:21:52.652Z,21.15
2022-11-13T14:24:51.875Z,23.02
2022-11-13T14:27:37.946Z,22.83
2022-11-13T14:30:28.922Z,24.58
2022-11-13T14:33:24.030Z,25.02
2022-11-13T14:36:09.836Z,21.20
2022-11-13T14:38:56.587Z,20.25
2022-11-13T14:41:49.903Z,18.98
2022-11-13T14:44:36.015Z,19.67
2022-11-13T14:47:24.667Z,21.45
2022-11-13T14:50:29.473Z,20.23
2022-11-13T14:53:43.851Z,19.52
2022-11-13T14:56:43.812Z,20.42
2022-11-13T14:59:29.405Z,18.58
2022-11-13T15:02:15.328Z,18.33
2022-11-13T15:05:00.457Z,19.75
2022-11-13T15:07:46.626Z,21.63
2022-11-13T15:10:32.550Z,21.15
2022-11-13T15:13:18.815Z,20.70
2022-11-13T15:16:04.854Z,20.95
2022-11-13T15:19:00.290Z,23.08
2022-11-13T15:22:05.520Z,24.33
2022-11-13T15:24:52.786Z,27.38
2022-11-13T15:27:42.853Z,31.45
2022-11-13T15:30:29.067Z,26.25
2022-11-13T15:33:16.310Z,24.20
2022-11-13T15:36:01.748Z,24.48
2022-11-13T15:38:47.391Z,23.50
2022-11-13T15:41:34.134Z,28.15
2022-11-13T15:44:19.699Z,24.75
2022-11-13T15:47:21.811Z,25.13
2022-11-13T15:50:16.234Z,26.25
2022-11-13T15:53:05.485Z,22.83
2022-11-13T15:55:51.384Z,21.35
2022-11-13T15:58:36.598Z,19.30
2022-11-13T16:01:22.632Z,21.77
2022-11-13T16:04:08.801Z,20.38
2022-11-13T16:06:54.558Z,18.70
2022-11-13T16:09:40.009Z,21.65
2022-11-13T16:12:27.064Z,21.48
2022-11-13T16:15:17.451Z,22.33
2022-11-13T16:18:03.450Z,24.88
2022-11-13T16:20:49.612Z,27.52
2022-11-13T16:23:35.266Z,25.35
2022-11-13T16:26:24.523Z,37.40
2022-11-13T16:29:19.400Z,31.63
2022-11-13T16:32:04.981Z,20.67
2022-11-13T16:34:50.830Z,20.00
2022-11-13T16:37:36.251Z,22.52
2022-11-13T16:40:24.529Z,21.58
2022-11-13T16:43:10.586Z,23.67
2022-11-13T16:45:58.166Z,23.13
2022-11-13T16:48:43.891Z,34.85
2022-11-13T16:51:29.166Z,35.75
2022-11-13T16:54:14.908Z,44.30
2022-11-13T16:57:00.441Z,35.03
2022-11-13T16:59:46.019Z,30.63
2022-11-13T17:02:31.656Z,96.88
2022-11-13T17:05:18.837Z,26.92
2022-11-13T17:08:06.073Z,19.67
2022-11-13T17:10:58.460Z,20.88
2022-11-13T17:13:44.676Z,17.95
2022-11-13T17:16:31.546Z,15.50
2022-11-13T17:19:17.236Z,17.15
2022-11-13T17:22:02.407Z,18.83
2022-11-13T17:24:47.952Z,21.33
2022-11-13T17:27:33.445Z,15.05
2022-11-13T17:30:19.057Z,22.63
2022-11-13T17:33:04.597Z,15.20
2022-11-13T17:35:54.994Z,13.23
2022-11-13T17:38:40.482Z,16.55
2022-11-13T17:41:26.329Z,16.40
2022-11-13T17:44:11.967Z,16.40
2022-11-13T17:46:57.519Z,15.77
2022-11-13T17:49:42.989Z,16.60
2022-11-13T17:52:28.504Z,24.10
2022-11-13T17:55:14.348Z,16.73
2022-11-13T17:58:01.323Z,13.45
2022-11-13T18:00:46.672Z,11.82
2022-11-13T18:03:32.381Z,13.57
2022-11-13T18:06:19.972Z,13.15
2022-11-13T18:09:06.435Z,13.18
2022-11-13T18:11:52.196Z,15.55
2022-11-13T18:14:37.987Z,13.13
2022-11-13T18:17:24.195Z,13.73
2022-11-13T18:20:09.976Z,16.20
2022-11-13T18:22:56.245Z,16.83
2022-11-13T18:25:41.998Z,14.32
2022-11-13T18:28:27.829Z,15.48
2022-11-13T18:31:15.924Z,20.25
2022-11-13T18:34:04.207Z,16.40
2022-11-13T18:36:50.465Z,16.25
2022-11-13T18:39:36.009Z,15.60
2022-11-13T18:42:21.328Z,17.27
2022-11-13T18:45:07.683Z,19.38
2022-11-13T18:47:52.936Z,19.40
2022-11-13T18:50:38.421Z,17.08
2022-11-13T18:53:23.993Z,16.33
2022-11-13T18:56:13.215Z,17.50
2022-11-13T18:59:00.206Z,18.00
2022-11-13T19:01:45.595Z,24.25
2022-11-13T19:04:31.230Z,19.60
2022-11-13T19:07:16.984Z,17.98
2022-11-13T19:10:02.840Z,16.90
2022-11-13T19:12:48.689Z,17.10
2022-11-13T19:15:38.749Z,19.17
2022-11-13T19:18:24.243Z,19.05
2022-11-13T19:21:12.491Z,19.45
2022-11-13T19:23:58.743Z,20.02
2022-11-13T19:26:46.984Z,33.65
2022-11-13T19:29:32.868Z,27.55
2022-11-13T19:32:18.425Z,19.30
2022-11-13T19:35:04.117Z,18.13
2022-11-13T19:37:57.188Z,14.57
2022-11-13T19:40:52.363Z,15.85
2022-11-13T19:43:40.589Z,14.73
2022-11-13T19:46:26.480Z,15.68
2022-11-13T19:49:12.265Z,17.42
2022-11-13T19:51:57.786Z,17.60
2022-11-13T19:54:43.317Z,16.92
2022-11-13T19:57:29.025Z,22.08
2022-11-13T20:00:15.117Z,20.17
2022-11-13T20:03:05.028Z,19.13
2022-11-13T20:05:59.370Z,16.02
2022-11-13T20:08:44.883Z,16.52
2022-11-13T20:11:30.542Z,13.82
2022-11-13T20:14:16.592Z,14.77
2022-11-13T20:17:03.532Z,13.00
2022-11-13T20:19:49.559Z,11.30
2022-11-13T20:22:35.946Z,10.75
2022-11-13T20:25:21.222Z,10.52
2022-11-13T20:28:06.634Z,9.98
2022-11-13T20:31:01.555Z,9.50
2022-11-13T20:33:48.603Z,9.75
2022-11-13T20:36:33.837Z,7.95
2022-11-13T20:39:19.518Z,8.05
2022-11-13T20:42:05.099Z,8.75
2022-11-13T20:44:50.646Z,9.85
2022-11-13T20:47:36.208Z,10.55
2022-11-13T20:50:21.813Z,14.55
2022-11-13T20:53:07.729Z,16.73
2022-11-13T20:55:53.062Z,20.05
2022-11-13T20:58:38.985Z,19.33
2022-11-13T21:01:26.176Z,21.20
2022-11-13T21:04:12.901Z,23.67
2022-11-13T21:06:58.823Z,18.55
2022-11-13T21:09:48.812Z,20.35
2022-11-13T21:12:35.786Z,21.27
2022-11-13T21:15:21.290Z,16.83
2022-11-13T21:18:07.261Z,25.13
2022-11-13T21:20:52.797Z,19.33
2022-11-13T21:23:38.852Z,16.25
2022-11-13T21:26:24.470Z,24.55
2022-11-13T21:29:10.192Z,23.95
2022-11-13T21:31:55.687Z,23.60
2022-11-13T21:34:41.398Z,57.25
2022-11-13T21:37:27.109Z,103.07
2022-11-13T21:40:13.247Z,103.57
2022-11-13T21:42:58.742Z,132.73
2022-11-13T21:45:44.250Z,115.60
2022-11-13T21:48:33.181Z,89.18
2022-11-13T21:51:19.350Z,64.30
2022-11-13T21:54:05.759Z,44.17
2022-11-13T21:56:51.450Z,39.10
2022-11-13T21:59:36.751Z,31.25
2022-11-13T22:02:22.405Z,30.13
2022-11-13T22:05:08.267Z,24.42
2022-11-13T22:07:53.798Z,28.98
2022-11-13T22:10:39.389Z,26.50
2022-11-13T22:13:24.884Z,27.17
2022-11-13T22:16:12.398Z,28.65
2022-11-13T22:19:03.526Z,32.53
2022-11-13T22:21:48.737Z,38.55
2022-11-13T22:24:34.211Z,38.92
2022-11-13T22:27:20.057Z,26.30
2022-11-13T22:30:06.259Z,21.27
2022-11-13T22:32:51.749Z,21.40
2022-11-13T22:35:37.284Z,26.08
2022-11-13T22:38:22.671Z,27.75
2022-11-13T22:41:22.679Z,27.15
2022-11-13T22:44:13.093Z,25.73
2022-11-13T22:46:58.969Z,28.98
2022-11-13T22:49:45.001Z,27.75
2022-11-13T22:52:31.003Z,23.92
2022-11-13T22:55:16.502Z,24.60
2022-11-13T22:58:02.027Z,21.92
2022-11-13T23:00:47.471Z,23.60
2022-11-13T23:03:36.270Z,23.27
2022-11-13T23:06:27.083Z,24.60
2022-11-13T23:09:12.549Z,19.55
2022-11-13T23:11:58.482Z,18.45
2022-11-13T23:14:44.068Z,17.73
2022-11-13T23:17:29.553Z,16.50
2022-11-13T23:20:15.148Z,15.15
2022-11-13T23:23:00.477Z,12.07
2022-11-13T23:25:45.917Z,11.68
2022-11-13T23:28:32.054Z,15.82
2022-11-13T23:31:17.901Z,21.00
2022-11-13T23:34:03.222Z,15.73
2022-11-13T23:36:49.050Z,14.95
2022-11-13T23:39:34.439Z,12.70
2022-11-13T23:42:39.387Z,12.50
2022-11-13T23:45:25.674Z,13.88
2022-11-13T23:48:11.094Z,13.82
2022-11-13T23:51:01.094Z,11.60
2022-11-13T23:53:46.698Z,12.57
2022-11-13T23:56:32.121Z,12.20
2022-11-13T23:59:17.694Z,11.05
